Time;durP1;ratioP1;P1;durP2;ratioP2;P2;SDS_P1;SDS_P2;PMS_P1;PMS_P2;Temp;Humidity;BMP_temperature;BMP_pressure;BME280_temperature;BME280_humidity;BME280_pressure;Samples;Min_cycle;Max_cycle;Signal;HPM_P1;HPM_P2
2023/04/06 00:02:20;;;;;;;2.80;2.47;;;17.70;60.30;;;;;;5046749;28;20210;-46
2023/04/06 00:05:02;;;;;;;5.17;2.87;;;17.60;60.20;;;;;;5044674;28;20300;-46
2023/04/06 00:07:34;;;;;;;3.87;2.07;;;17.60;60.20;;;;;;5047507;28;20748;-46
2023/04/06 00:10:06;;;;;;;3.70;2.33;;;17.60;60.20;;;;;;5014848;28;20249;-46
2023/04/06 00:12:34;;;;;;;3.53;2.10;;;17.70;60.20;;;;;;5026771;28;20249;-46
2023/04/06 00:15:05;;;;;;;4.30;2.40;;;17.60;60.20;;;;;;5046752;28;20571;-46
2023/04/06 00:17:37;;;;;;;3.10;2.03;;;17.60;60.20;;;;;;5034528;28;20249;-46
2023/04/06 00:20:08;;;;;;;3.07;1.93;;;17.50;60.20;;;;;;5049557;28;20226;-47
2023/04/06 00:22:37;;;;;;;2.87;2.33;;;17.60;60.20;;;;;;5047353;28;20399;-46
2023/04/06 00:25:07;;;;;;;3.50;2.23;;;17.60;60.20;;;;;;5047534;28;20210;-47
2023/04/06 00:27:39;;;;;;;2.90;1.90;;;17.60;60.20;;;;;;5045882;28;20202;-46
2023/04/06 00:30:09;;;;;;;2.50;2.30;;;17.50;60.10;;;;;;5050484;28;20202;-46
2023/04/06 00:32:39;;;;;;;2.93;2.57;;;17.50;60.10;;;;;;5048041;28;20186;-46
2023/04/06 00:35:08;;;;;;;3.13;2.40;;;17.50;60.10;;;;;;5050278;28;20339;-46
2023/04/06 00:37:40;;;;;;;3.60;2.30;;;17.50;60.10;;;;;;5050678;28;20512;-46
2023/04/06 00:40:12;;;;;;;3.07;2.57;;;17.50;60.10;;;;;;5047713;28;20271;-46
2023/04/06 00:42:43;;;;;;;2.80;2.50;;;17.50;60.10;;;;;;5051869;28;20193;-46
2023/04/06 00:45:15;;;;;;;4.00;2.47;;;17.40;60.10;;;;;;5042167;28;20264;-46
2023/04/06 00:47:45;;;;;;;2.83;2.20;;;17.50;60.10;;;;;;5049958;28;20194;-46
2023/04/06 00:50:18;;;;;;;3.00;2.33;;;17.40;60.10;;;;;;5050407;28;20194;-46
2023/04/06 00:52:49;;;;;;;2.20;2.00;;;17.40;60.00;;;;;;5027956;28;20210;-48
2023/04/06 00:55:20;;;;;;;3.27;2.13;;;17.40;60.00;;;;;;5049973;28;20186;-46
2023/04/06 00:57:51;;;;;;;2.50;2.10;;;17.40;60.00;;;;;;5049888;28;20570;-46
2023/04/06 01:00:20;;;;;;;3.20;2.37;;;17.30;60.00;;;;;;5050313;28;20205;-46
2023/04/06 01:02:53;;;;;;;3.03;2.20;;;17.30;60.00;;;;;;5029438;28;20206;-46
2023/04/06 01:05:26;;;;;;;3.23;2.50;;;17.30;60.00;;;;;;5049104;28;20805;-46
2023/04/06 01:07:58;;;;;;;3.30;1.97;;;17.30;60.00;;;;;;5050894;28;20202;-46
2023/04/06 01:10:28;;;;;;;2.30;1.77;;;17.40;60.00;;;;;;5046276;28;20218;-46
2023/04/06 01:12:58;;;;;;;4.13;2.10;;;17.40;60.00;;;;;;5021072;28;20233;-46
2023/04/06 01:15:29;;;;;;;3.33;2.07;;;17.30;59.90;;;;;;5048039;28;20229;-46
2023/04/06 01:18:01;;;;;;;2.53;2.13;;;17.30;59.80;;;;;;5029868;28;20286;-46
2023/04/06 01:20:31;;;;;;;2.50;1.93;;;17.30;59.90;;;;;;5046189;28;20646;-46
2023/04/06 01:23:06;;;;;;;2.30;1.87;;;17.20;59.80;;;;;;5050006;28;20198;-46
2023/04/06 01:25:37;;;;;;;3.07;2.30;;;17.30;59.90;;;;;;5050780;28;20226;-46
2023/04/06 01:28:07;;;;;;;2.03;1.87;;;17.30;59.80;;;;;;5060398;28;20276;-46
2023/04/06 01:30:41;;;;;;;3.40;2.30;;;17.20;60.00;;;;;;5047311;28;20208;-46
2023/04/06 01:33:13;;;;;;;2.60;2.20;;;17.20;59.80;;;;;;5050314;28;20580;-46
2023/04/06 01:35:47;;;;;;;3.60;2.30;;;17.20;59.70;;;;;;5050131;28;20201;-46
2023/04/06 01:38:19;;;;;;;2.53;2.27;;;17.20;59.70;;;;;;5048808;28;20206;-46
2023/04/06 01:40:50;;;;;;;3.33;2.77;;;17.20;59.70;;;;;;5028286;28;20210;-46
2023/04/06 01:43:22;;;;;;;2.40;2.20;;;17.20;59.70;;;;;;5054040;28;20277;-46
2023/04/06 01:45:52;;;;;;;2.30;2.10;;;17.20;59.70;;;;;;5033039;28;20186;-46
2023/04/06 01:48:23;;;;;;;2.23;2.00;;;17.20;59.70;;;;;;5049766;28;20193;-46
2023/04/06 01:50:53;;;;;;;2.83;2.20;;;17.10;59.60;;;;;;5028372;28;20199;-46
2023/04/06 01:53:25;;;;;;;2.90;2.27;;;17.20;59.70;;;;;;5048768;28;20237;-46
2023/04/06 01:56:01;;;;;;;3.13;2.30;;;17.20;59.60;;;;;;5049724;28;20186;-46
2023/04/06 01:58:32;;;;;;;3.07;2.40;;;17.10;59.60;;;;;;5046075;28;20194;-46
2023/04/06 02:01:00;;;;;;;2.20;2.00;;;17.10;59.50;;;;;;5050296;28;20256;-46
2023/04/06 02:03:30;;;;;;;2.17;1.97;;;17.10;59.50;;;;;;5047028;28;20808;-46
2023/04/06 02:06:03;;;;;;;1.90;1.80;;;17.10;59.50;;;;;;5048863;28;20224;-46
2023/04/06 02:08:34;;;;;;;3.27;2.20;;;17.10;59.50;;;;;;5043922;28;20206;-46
2023/04/06 02:11:05;;;;;;;2.80;2.27;;;17.10;59.50;;;;;;5050445;28;20604;-47
2023/04/06 02:13:33;;;;;;;2.80;2.10;;;17.10;59.60;;;;;;5048638;28;20202;-46
2023/04/06 02:16:05;;;;;;;3.17;2.33;;;17.10;59.50;;;;;;5030787;28;20225;-46
2023/04/06 02:18:35;;;;;;;2.70;2.00;;;17.10;59.50;;;;;;5046683;28;20226;-46
2023/04/06 02:21:07;;;;;;;2.17;1.97;;;17.00;59.50;;;;;;5049217;28;20672;-46
2023/04/06 02:23:37;;;;;;;2.87;2.10;;;17.00;59.50;;;;;;5048987;28;20245;-46
2023/04/06 02:26:09;;;;;;;2.97;1.97;;;17.00;59.50;;;;;;5049313;28;20214;-46
2023/04/06 02:28:40;;;;;;;2.77;2.00;;;17.00;59.50;;;;;;5056607;28;20206;-46
2023/04/06 02:31:10;;;;;;;2.17;1.90;;;17.00;59.50;;;;;;5049130;28;20259;-46
2023/04/06 02:33:46;;;;;;;3.10;2.07;;;17.00;59.50;;;;;;5047942;28;20256;-46
2023/04/06 02:36:17;;;;;;;3.47;2.47;;;17.00;59.50;;;;;;5049265;28;20202;-46
2023/04/06 02:38:50;;;;;;;2.83;2.20;;;17.00;59.50;;;;;;5044395;28;20280;-46
2023/04/06 02:41:20;;;;;;;2.70;2.20;;;16.90;59.40;;;;;;5048765;28;20229;-46
2023/04/06 02:43:51;;;;;;;2.30;2.10;;;16.90;59.40;;;;;;5053370;28;20249;-46
2023/04/06 02:46:22;;;;;;;3.13;2.73;;;16.90;59.40;;;;;;5048558;28;20280;-46
2023/04/06 02:48:52;;;;;;;2.30;2.10;;;16.90;59.40;;;;;;5049493;28;20285;-46
2023/04/06 02:51:25;;;;;;;2.13;1.93;;;16.90;59.40;;;;;;5047285;28;20229;-46
2023/04/06 02:54:08;;;;;;;2.80;2.10;;;16.90;59.30;;;;;;5045378;28;20717;-46
2023/04/06 02:56:49;;;;;;;2.77;2.33;;;16.90;59.40;;;;;;5040680;28;20214;-46
2023/04/06 02:59:22;;;;;;;2.67;2.47;;;16.90;59.40;;;;;;5031700;28;20647;-46
2023/04/06 03:01:54;;;;;;;2.73;2.53;;;16.90;59.40;;;;;;5048589;28;20248;-46
2023/04/06 03:04:25;;;;;;;2.37;1.90;;;16.80;59.30;;;;;;5044679;28;20244;-46
2023/04/06 03:06:56;;;;;;;2.40;2.17;;;16.80;59.20;;;;;;5049991;28;20217;-46
2023/04/06 03:09:29;;;;;;;3.07;2.27;;;16.80;59.30;;;;;;5049643;28;20252;-46
2023/04/06 03:11:58;;;;;;;2.20;2.00;;;16.80;59.30;;;;;;5050525;28;20198;-46
2023/04/06 03:14:30;;;;;;;3.63;2.43;;;16.80;59.20;;;;;;5048599;28;20206;-46
2023/04/06 03:16:59;;;;;;;3.27;2.50;;;16.80;59.20;;;;;;5049143;28;20263;-46
2023/04/06 03:19:32;;;;;;;3.37;2.80;;;16.90;59.30;;;;;;5042383;28;20729;-46
2023/04/06 03:22:05;;;;;;;2.70;2.23;;;16.80;59.20;;;;;;5045382;28;20619;-46
2023/04/06 03:24:36;;;;;;;3.27;2.60;;;16.80;59.20;;;;;;5051165;28;20758;-46
2023/04/06 03:27:07;;;;;;;2.77;2.50;;;16.80;59.20;;;;;;5062228;28;20732;-46
2023/04/06 03:29:37;;;;;;;2.77;2.30;;;16.80;59.10;;;;;;5062310;28;20186;-46
2023/04/06 03:32:06;;;;;;;3.27;2.33;;;16.80;59.10;;;;;;5055410;28;20246;-46
2023/04/06 03:34:36;;;;;;;4.73;2.80;;;16.80;59.10;;;;;;5050964;28;20214;-46
2023/04/06 03:37:11;;;;;;;3.00;2.37;;;16.80;59.10;;;;;;5045909;28;20202;-46
2023/04/06 03:39:40;;;;;;;2.20;2.00;;;16.80;59.10;;;;;;5052435;28;20210;-46
2023/04/06 03:42:11;;;;;;;3.27;2.90;;;16.80;59.10;;;;;;5052968;28;20204;-46
2023/04/06 03:44:43;;;;;;;4.47;2.60;;;16.80;59.00;;;;;;5047516;28;20225;-46
2023/04/06 03:47:11;;;;;;;3.50;2.40;;;16.70;59.00;;;;;;5031132;28;20340;-46
2023/04/06 03:49:41;;;;;;;3.00;2.50;;;16.80;59.00;;;;;;5046930;28;20222;-46
2023/04/06 03:52:12;;;;;;;3.20;2.80;;;16.70;58.90;;;;;;5049978;28;20202;-46
2023/04/06 03:54:44;;;;;;;3.13;2.67;;;16.70;58.90;;;;;;5027524;28;20191;-46
2023/04/06 03:57:14;;;;;;;3.03;2.73;;;16.80;58.90;;;;;;5054079;28;21340;-46
2023/04/06 03:59:45;;;;;;;3.13;2.83;;;16.70;58.80;;;;;;5036128;28;20203;-46
2023/04/06 04:02:17;;;;;;;3.60;3.30;;;16.70;58.80;;;;;;5051022;28;20213;-46
2023/04/06 04:04:47;;;;;;;2.87;2.57;;;16.70;58.80;;;;;;5038283;28;20233;-46
2023/04/06 04:07:14;;;;;;;3.30;2.97;;;16.70;58.80;;;;;;5051993;28;20228;-46
2023/04/06 04:09:48;;;;;;;4.37;2.90;;;16.70;58.80;;;;;;5034603;28;20842;-46
2023/04/06 04:12:18;;;;;;;3.23;2.93;;;16.70;58.80;;;;;;5036763;28;20199;-46
2023/04/06 04:14:47;;;;;;;3.27;2.60;;;16.70;58.80;;;;;;5044411;28;20264;-46
2023/04/06 04:17:17;;;;;;;3.43;2.87;;;16.70;58.80;;;;;;5051545;28;20206;-46
2023/04/06 04:19:47;;;;;;;3.90;2.80;;;16.70;58.70;;;;;;5048147;28;20241;-47
2023/04/06 04:22:24;;;;;;;3.53;3.23;;;16.70;58.70;;;;;;5037895;28;20702;-46
2023/04/06 04:24:53;;;;;;;3.77;3.40;;;16.70;58.70;;;;;;5024823;28;20222;-46
2023/04/06 04:27:25;;;;;;;2.90;2.57;;;16.70;58.60;;;;;;5051964;28;20632;-46
2023/04/06 04:29:55;;;;;;;4.13;3.23;;;16.70;58.70;;;;;;5051852;28;20525;-46
2023/04/06 04:32:27;;;;;;;3.87;3.10;;;16.70;58.70;;;;;;5051149;28;20518;-46
2023/04/06 04:35:00;;;;;;;3.30;2.73;;;16.70;58.70;;;;;;5050749;28;20533;-46
2023/04/06 04:37:30;;;;;;;3.83;3.37;;;16.60;58.70;;;;;;5051301;28;20209;-46
2023/04/06 04:40:02;;;;;;;3.47;3.07;;;16.60;58.70;;;;;;5046350;28;20539;-46
2023/04/06 04:42:35;;;;;;;4.37;3.30;;;16.60;58.70;;;;;;5050108;28;20618;-46
2023/04/06 04:45:06;;;;;;;4.57;4.00;;;16.60;58.60;;;;;;5049268;28;20214;-46
2023/04/06 04:47:36;;;;;;;3.43;3.10;;;16.70;58.60;;;;;;5051330;28;20199;-46
2023/04/06 04:50:07;;;;;;;4.00;3.00;;;16.70;58.60;;;;;;5048470;28;20236;-46
2023/04/06 04:52:37;;;;;;;4.40;2.97;;;16.70;58.50;;;;;;5035604;28;20194;-46
2023/04/06 04:55:07;;;;;;;4.47;4.07;;;16.60;58.40;;;;;;5031900;28;20207;-46
2023/04/06 04:57:37;;;;;;;3.40;3.10;;;16.60;58.40;;;;;;5055098;28;20260;-46
2023/04/06 05:00:06;;;;;;;3.63;3.33;;;16.60;58.30;;;;;;5050027;28;20205;-46
2023/04/06 05:02:39;;;;;;;3.63;3.33;;;16.60;58.30;;;;;;5041888;28;20526;-46
2023/04/06 05:05:11;;;;;;;3.80;3.20;;;16.60;58.30;;;;;;5048410;28;20281;-46
2023/04/06 05:07:41;;;;;;;3.50;3.20;;;16.60;58.20;;;;;;5043572;28;20546;-46
2023/04/06 05:10:10;;;;;;;4.63;3.83;;;16.60;58.10;;;;;;5033521;28;20216;-46
2023/04/06 05:12:41;;;;;;;4.73;4.30;;;16.60;57.90;;;;;;5056704;28;20190;-46
2023/04/06 05:15:09;;;;;;;4.73;4.23;;;16.60;57.80;;;;;;5047211;28;20217;-46
2023/04/06 05:17:40;;;;;;;6.87;4.17;;;16.60;57.80;;;;;;5050452;28;20190;-46
2023/04/06 05:20:08;;;;;;;4.93;4.23;;;16.60;57.80;;;;;;5050586;28;20305;-46
2023/04/06 05:22:38;;;;;;;5.90;4.57;;;16.60;57.80;;;;;;5047666;28;20256;-46
2023/04/06 05:25:08;;;;;;;6.30;4.60;;;16.60;57.60;;;;;;5050000;28;20306;-46
2023/04/06 05:27:38;;;;;;;11.83;6.53;;;16.60;57.40;;;;;;5052353;28;20217;-46
2023/04/06 05:30:07;;;;;;;19.20;8.37;;;16.60;57.70;;;;;;5048711;28;20201;-46
2023/04/06 05:32:42;;;;;;;23.53;9.97;;;16.60;58.00;;;;;;5047815;28;20206;-46
2023/04/06 05:35:13;;;;;;;21.67;10.17;;;16.60;58.50;;;;;;5045986;28;20202;-46
2023/04/06 05:37:44;;;;;;;27.17;10.63;;;16.60;58.50;;;;;;5050694;28;20195;-46
2023/04/06 05:40:15;;;;;;;19.50;10.47;;;16.60;58.40;;;;;;5046854;28;20237;-46
2023/04/06 05:42:46;;;;;;;22.70;10.90;;;16.60;58.20;;;;;;5050331;28;20507;-46
2023/04/06 05:45:18;;;;;;;17.50;9.07;;;16.60;58.20;;;;;;5042509;28;20539;-46
2023/04/06 05:47:49;;;;;;;19.97;9.70;;;16.60;58.10;;;;;;5050146;28;20202;-46
2023/04/06 05:50:22;;;;;;;18.00;9.03;;;16.60;58.10;;;;;;5044859;28;20205;-46
2023/04/06 05:52:51;;;;;;;15.27;8.33;;;16.60;58.00;;;;;;5045438;28;20241;-46
2023/04/06 05:55:20;;;;;;;15.03;8.13;;;16.60;57.90;;;;;;5048437;28;20539;-46
2023/04/06 05:57:51;;;;;;;13.00;7.90;;;16.60;57.80;;;;;;5041196;28;20186;-53
2023/04/06 06:00:22;;;;;;;14.20;8.50;;;16.60;57.80;;;;;;5031563;28;20612;-46
2023/04/06 06:02:50;;;;;;;13.93;8.23;;;16.60;57.60;;;;;;5045525;28;20510;-46
2023/04/06 06:05:21;;;;;;;12.50;8.60;;;16.60;57.60;;;;;;5049486;28;20287;-46
2023/04/06 06:07:52;;;;;;;13.43;8.37;;;16.60;58.00;;;;;;5048634;28;20186;-46
2023/04/06 06:10:24;;;;;;;10.23;6.90;;;16.60;58.50;;;;;;5032839;28;20240;-46
2023/04/06 06:12:55;;;;;;;10.80;7.53;;;16.60;58.30;;;;;;5048313;28;20199;-46
2023/04/06 06:15:26;;;;;;;14.73;7.67;;;16.60;58.00;;;;;;5047083;28;20564;-46
2023/04/06 06:17:58;;;;;;;12.00;7.47;;;16.60;57.90;;;;;;5029229;28;20674;-46
2023/04/06 06:20:28;;;;;;;12.13;7.30;;;16.60;57.60;;;;;;5045840;28;20829;-46
2023/04/06 06:23:02;;;;;;;8.47;6.80;;;16.60;57.40;;;;;;5048533;28;20186;-46
2023/04/06 06:25:46;;;;;;;9.70;6.67;;;16.60;57.40;;;;;;5052563;28;20241;-46
2023/04/06 06:28:17;;;;;;;11.33;7.13;;;16.60;57.20;;;;;;5027273;28;20202;-46
2023/04/06 06:30:48;;;;;;;13.60;7.63;;;16.60;57.10;;;;;;5047081;28;20417;-46
2023/04/06 06:33:18;;;;;;;9.20;6.60;;;16.60;57.00;;;;;;5048739;28;20616;-46
2023/04/06 06:35:51;;;;;;;9.10;6.57;;;16.70;56.90;;;;;;5032498;28;20195;-46
2023/04/06 06:38:23;;;;;;;11.63;7.27;;;16.60;56.70;;;;;;5048920;28;20540;-46
2023/04/06 06:40:54;;;;;;;10.57;7.33;;;16.60;56.60;;;;;;5045392;28;20653;-46
2023/04/06 06:43:22;;;;;;;10.70;5.97;;;16.60;56.70;;;;;;5049178;28;20202;-46
2023/04/06 06:45:52;;;;;;;8.00;6.53;;;16.60;56.60;;;;;;5050144;28;20245;-46
2023/04/06 06:48:20;;;;;;;9.77;6.43;;;16.60;56.40;;;;;;5050440;28;20186;-47
2023/04/06 06:50:50;;;;;;;8.13;6.10;;;16.60;56.40;;;;;;5028496;28;20684;-46
2023/04/06 06:53:27;;;;;;;9.63;6.23;;;16.60;56.30;;;;;;5049904;28;20716;-46
2023/04/06 06:55:56;;;;;;;9.23;6.43;;;16.60;56.30;;;;;;5033772;28;20647;-46
2023/04/06 06:58:26;;;;;;;10.37;6.63;;;16.60;56.30;;;;;;5046643;28;20287;-46
2023/04/06 07:00:58;;;;;;;8.97;6.40;;;16.60;56.30;;;;;;5048570;28;20206;-46
2023/04/06 07:03:29;;;;;;;10.10;5.90;;;16.60;56.20;;;;;;5045682;28;20210;-46
2023/04/06 07:06:01;;;;;;;6.60;4.67;;;16.60;56.10;;;;;;5048842;28;20260;-46
2023/04/06 07:08:31;;;;;;;7.13;5.67;;;16.60;56.20;;;;;;5045815;28;20288;-46
2023/04/06 07:11:08;;;;;;;6.70;5.30;;;16.60;56.20;;;;;;5053557;28;20203;-46
2023/04/06 07:13:36;;;;;;;7.43;5.40;;;16.60;56.10;;;;;;5048419;28;20237;-46
2023/04/06 07:16:08;;;;;;;6.37;5.20;;;16.60;56.10;;;;;;5046403;28;20225;-46
2023/04/06 07:18:44;;;;;;;7.70;5.80;;;16.60;55.90;;;;;;5046349;28;20198;-46
2023/04/06 07:21:15;;;;;;;8.10;5.83;;;16.70;55.80;;;;;;5048672;28;20241;-46
2023/04/06 07:23:47;;;;;;;8.20;6.30;;;16.60;55.70;;;;;;5048183;28;20624;-46
2023/04/06 07:26:17;;;;;;;8.03;5.47;;;16.60;55.50;;;;;;5052866;28;20206;-47
2023/04/06 07:28:49;;;;;;;8.83;6.37;;;16.60;55.50;;;;;;5045098;28;20353;-46
2023/04/06 07:31:21;;;;;;;7.77;6.30;;;16.60;55.50;;;;;;5054127;28;20194;-46
2023/04/06 07:33:50;;;;;;;6.47;5.83;;;16.70;55.50;;;;;;5052964;28;20819;-46
2023/04/06 07:36:27;;;;;;;6.97;5.50;;;16.60;55.40;;;;;;5052553;28;20210;-46
2023/04/06 07:38:58;;;;;;;5.80;5.20;;;16.60;55.40;;;;;;5053737;28;20257;-46
2023/04/06 07:41:29;;;;;;;7.90;5.97;;;16.60;55.30;;;;;;5057904;28;20206;-46
2023/04/06 07:43:59;;;;;;;7.30;5.73;;;16.60;55.30;;;;;;5042982;28;20296;-46
2023/04/06 07:46:32;;;;;;;5.83;4.93;;;16.60;55.20;;;;;;5049648;28;20269;-46
2023/04/06 07:49:02;;;;;;;6.73;5.33;;;16.60;55.20;;;;;;5036208;28;20198;-46
2023/04/06 07:51:37;;;;;;;7.17;5.70;;;16.60;55.20;;;;;;5050290;28;20221;-46
2023/04/06 07:54:09;;;;;;;6.87;6.00;;;16.60;55.10;;;;;;5053834;28;20192;-46
2023/04/06 07:56:38;;;;;;;6.03;4.90;;;16.60;55.20;;;;;;5038767;28;20218;-46
2023/04/06 07:59:08;;;;;;;7.00;5.60;;;16.70;55.10;;;;;;5031636;28;20194;-46
2023/04/06 08:01:39;;;;;;;8.03;5.77;;;16.60;55.10;;;;;;5037741;28;20198;-46
2023/04/06 08:04:09;;;;;;;6.80;5.67;;;16.70;55.10;;;;;;5052384;28;20244;-46
2023/04/06 08:06:42;;;;;;;7.53;5.90;;;16.60;55.00;;;;;;5052664;28;20222;-46
2023/04/06 08:09:15;;;;;;;6.97;6.20;;;16.70;54.90;;;;;;5055074;28;20834;-46
2023/04/06 08:11:46;;;;;;;7.10;5.37;;;16.70;54.90;;;;;;5055317;28;20194;-46
2023/04/06 08:14:15;;;;;;;6.30;5.70;;;16.70;54.90;;;;;;5048319;28;20236;-46
2023/04/06 08:16:46;;;;;;;6.40;5.30;;;16.70;54.90;;;;;;5034093;28;20199;-46
2023/04/06 08:19:17;;;;;;;5.03;4.53;;;16.60;54.90;;;;;;5054619;28;20519;-46
2023/04/06 08:21:47;;;;;;;7.60;5.43;;;16.70;54.90;;;;;;5052720;28;20190;-46
2023/04/06 08:24:16;;;;;;;6.23;4.97;;;16.70;54.90;;;;;;5052094;28;20197;-46
2023/04/06 08:26:46;;;;;;;5.30;4.80;;;16.70;54.80;;;;;;5047789;28;20228;-46
2023/04/06 08:29:17;;;;;;;6.27;5.00;;;16.70;54.90;;;;;;5052548;28;20218;-46
2023/04/06 08:31:49;;;;;;;5.60;5.00;;;16.70;54.80;;;;;;5052192;28;20186;-46
2023/04/06 08:34:18;;;;;;;6.67;4.70;;;16.70;54.80;;;;;;5021615;28;20190;-46
2023/04/06 08:36:47;;;;;;;6.43;4.77;;;16.70;54.70;;;;;;5049406;28;20640;-46
2023/04/06 08:39:25;;;;;;;5.73;5.10;;;16.70;54.70;;;;;;5052982;28;20214;-46
2023/04/06 08:41:56;;;;;;;6.43;5.03;;;16.70;54.70;;;;;;5050953;28;20559;-46
2023/04/06 08:44:32;;;;;;;5.43;4.57;;;16.70;54.60;;;;;;5049489;28;20194;-46
2023/04/06 08:47:09;;;;;;;7.73;5.60;;;16.70;54.60;;;;;;5035108;28;20201;-46
2023/04/06 08:49:45;;;;;;;7.33;5.10;;;16.70;55.30;;;;;;5035616;28;20565;-46
2023/04/06 08:52:19;;;;;;;7.40;5.27;;;16.70;54.60;;;;;;5036651;28;20563;-46
2023/04/06 08:54:47;;;;;;;6.33;5.10;;;16.70;54.60;;;;;;5047393;28;20520;-46
2023/04/06 08:57:20;;;;;;;6.63;4.87;;;16.70;54.50;;;;;;5013334;28;20541;-46
2023/04/06 08:59:55;;;;;;;7.97;4.97;;;16.70;54.50;;;;;;5051914;28;20197;-46
2023/04/06 09:02:25;;;;;;;6.57;5.37;;;16.70;54.50;;;;;;5032898;28;20222;-46
2023/04/06 09:04:56;;;;;;;7.50;5.37;;;16.70;54.40;;;;;;5041227;28;20212;-45
2023/04/06 09:07:29;;;;;;;8.00;5.47;;;16.80;54.40;;;;;;5044735;28;20371;-46
2023/04/06 09:10:00;;;;;;;6.90;5.57;;;16.70;54.20;;;;;;5047594;28;20206;-46
2023/04/06 09:12:33;;;;;;;6.80;5.63;;;16.80;54.30;;;;;;5049427;28;20198;-46
2023/04/06 09:15:02;;;;;;;7.47;5.43;;;16.80;54.20;;;;;;5048159;28;20211;-46
2023/04/06 09:17:33;;;;;;;7.47;6.07;;;16.80;54.20;;;;;;5050818;28;20536;-46
2023/04/06 09:20:05;;;;;;;8.60;5.10;;;16.80;54.30;;;;;;5050406;28;20549;-46
2023/04/06 09:22:55;;;;;;;9.20;5.97;;;16.80;54.20;;;;;;5050991;28;20190;-46
2023/04/06 09:25:28;;;;;;;6.97;4.90;;;16.80;54.20;;;;;;5038261;28;20300;-46
2023/04/06 09:28:07;;;;;;;6.87;4.90;;;16.80;54.20;;;;;;5048739;28;20221;-46
2023/04/06 09:30:49;;;;;;;6.80;5.23;;;16.80;54.20;;;;;;5048198;28;20714;-46
2023/04/06 09:33:26;;;;;;;5.77;5.00;;;16.80;54.20;;;;;;5049823;28;20569;-46
2023/04/06 09:36:00;;;;;;;8.07;6.03;;;16.80;54.00;;;;;;5050194;28;20198;-46
2023/04/06 09:38:29;;;;;;;7.03;5.73;;;16.80;54.00;;;;;;5049704;28;20897;-47
2023/04/06 09:41:02;;;;;;;7.23;5.93;;;16.80;54.00;;;;;;5050996;28;20202;-46
2023/04/06 09:43:32;;;;;;;7.10;5.60;;;16.80;53.90;;;;;;5050440;28;20195;-46
2023/04/06 09:46:04;;;;;;;9.13;6.23;;;16.80;53.90;;;;;;5050175;28;20210;-46
2023/04/06 09:48:34;;;;;;;7.40;5.63;;;16.90;53.90;;;;;;5043123;28;20758;-46
2023/04/06 09:51:06;;;;;;;6.00;4.90;;;16.80;53.90;;;;;;5029849;28;20819;-46
2023/04/06 09:53:50;;;;;;;7.00;6.23;;;16.90;54.00;;;;;;5035392;28;20223;-46
2023/04/06 09:56:24;;;;;;;9.20;5.63;;;16.80;53.80;;;;;;5033417;28;20198;-46
2023/04/06 09:59:19;;;;;;;5.97;4.97;;;16.90;54.10;;;;;;5034995;28;20209;-46
2023/04/06 10:02:06;;;;;;;6.73;5.53;;;16.90;54.00;;;;;;5051421;28;20219;-46
2023/04/06 10:04:49;;;;;;;8.73;5.50;;;16.90;53.90;;;;;;5048047;28;20229;-46
2023/04/06 10:07:19;;;;;;;6.50;5.07;;;16.90;54.10;;;;;;5026643;28;20210;-46
2023/04/06 10:09:50;;;;;;;7.03;5.23;;;16.90;54.10;;;;;;5052042;28;20189;-46
2023/04/06 10:12:19;;;;;;;6.57;5.43;;;16.90;54.00;;;;;;5052289;28;20522;-47
2023/04/06 10:14:53;;;;;;;6.73;5.40;;;16.90;53.90;;;;;;5049369;28;24428;-46
2023/04/06 10:17:25;;;;;;;8.57;5.63;;;16.90;54.00;;;;;;5026845;28;20209;-46
2023/04/06 10:20:10;;;;;;;6.23;5.63;;;16.90;54.50;;;;;;5049490;28;20237;-46
2023/04/06 10:23:05;;;;;;;9.23;5.47;;;17.00;53.90;;;;;;5048638;28;20260;-46
2023/04/06 10:25:37;;;;;;;7.00;5.03;;;16.90;53.80;;;;;;5039265;28;20215;-46
2023/04/06 10:28:11;;;;;;;6.87;5.43;;;17.00;53.90;;;;;;5048976;28;20197;-46
2023/04/06 10:30:46;;;;;;;5.60;5.00;;;17.00;53.90;;;;;;5022365;28;20256;-46
2023/04/06 10:33:19;;;;;;;8.37;4.90;;;17.00;54.10;;;;;;5033859;28;20206;-46
2023/04/06 10:35:50;;;;;;;6.07;4.87;;;17.00;54.00;;;;;;5037835;28;20200;-46
2023/04/06 10:38:22;;;;;;;6.13;4.80;;;17.00;54.00;;;;;;5044625;28;20225;-49
2023/04/06 10:41:10;;;;;;;7.07;5.50;;;17.00;54.00;;;;;;5047629;28;20214;-46
2023/04/06 10:43:43;;;;;;;6.37;5.17;;;17.00;54.00;;;;;;5049399;28;20514;-46
2023/04/06 10:46:28;;;;;;;6.53;5.10;;;17.00;54.10;;;;;;5038323;28;20221;-46
2023/04/06 10:49:14;;;;;;;8.70;5.03;;;17.00;54.10;;;;;;5021634;28;20179;-46
2023/04/06 10:51:43;;;;;;;5.63;4.60;;;17.00;54.10;;;;;;5033115;28;20209;-46
2023/04/06 10:54:13;;;;;;;6.80;4.50;;;17.10;54.10;;;;;;5049165;28;20202;-46
2023/04/06 10:56:45;;;;;;;4.60;3.93;;;17.10;54.10;;;;;;5046873;28;20198;-46
2023/04/06 10:59:13;;;;;;;7.17;4.60;;;17.10;54.10;;;;;;5048572;28;20198;-46
2023/04/06 11:01:46;;;;;;;6.07;4.53;;;17.10;54.00;;;;;;5048106;28;20784;-46
2023/04/06 11:04:20;;;;;;;6.67;4.20;;;17.10;54.00;;;;;;5028853;28;20264;-46
2023/04/06 11:06:51;;;;;;;7.23;4.23;;;17.10;54.00;;;;;;5038368;28;20285;-46
2023/04/06 11:09:45;;;;;;;4.87;4.10;;;17.10;54.00;;;;;;5048616;28;20178;-46
2023/04/06 11:12:39;;;;;;;5.83;3.83;;;17.10;54.10;;;;;;5029346;28;20221;-46
2023/04/06 11:15:10;;;;;;;7.40;4.43;;;17.20;54.10;;;;;;5046508;28;20229;-46
2023/04/06 11:17:41;;;;;;;7.13;4.00;;;17.10;54.00;;;;;;5032148;28;20531;-47
2023/04/06 11:20:11;;;;;;;5.00;3.37;;;17.10;54.00;;;;;;5050094;28;20969;-46
2023/04/06 11:22:49;;;;;;;4.20;3.80;;;17.10;54.00;;;;;;5054915;28;20610;-46
2023/04/06 11:25:20;;;;;;;4.90;3.73;;;17.20;54.00;;;;;;5031689;28;20209;-46
2023/04/06 11:27:53;;;;;;;5.40;3.90;;;17.20;53.90;;;;;;5046806;28;20611;-46
2023/04/06 11:30:24;;;;;;;3.90;3.50;;;17.20;53.90;;;;;;5044789;28;20286;-46
2023/04/06 11:33:02;;;;;;;4.40;4.00;;;17.20;53.90;;;;;;5042825;28;20311;-46
2023/04/06 11:35:37;;;;;;;3.83;3.37;;;17.20;53.90;;;;;;5049809;28;20271;-46
2023/04/06 11:38:07;;;;;;;3.60;3.10;;;17.20;53.90;;;;;;5016586;28;20533;-47
2023/04/06 11:40:36;;;;;;;5.13;3.40;;;17.20;53.90;;;;;;5044187;28;20550;-46
2023/04/06 11:43:10;;;;;;;3.37;3.00;;;17.20;54.00;;;;;;5048000;28;20203;-47
2023/04/06 11:45:46;;;;;;;3.70;3.23;;;17.20;53.90;;;;;;5031726;28;20187;-46
2023/04/06 11:48:22;;;;;;;5.30;3.17;;;17.20;53.70;;;;;;5045386;28;20648;-46
2023/04/06 11:51:03;;;;;;;4.53;2.90;;;17.20;53.80;;;;;;5049264;28;20213;-46
2023/04/06 11:53:48;;;;;;;3.30;2.80;;;17.20;53.90;;;;;;5048213;28;20198;-46
2023/04/06 11:56:24;;;;;;;3.93;3.00;;;17.20;53.90;;;;;;5039391;28;20738;-46
2023/04/06 11:59:03;;;;;;;3.30;2.97;;;17.20;53.90;;;;;;5047954;28;20198;-46
2023/04/06 12:01:44;;;;;;;4.37;3.50;;;17.20;54.00;;;;;;5048641;28;20537;-46
2023/04/06 12:04:15;;;;;;;3.07;2.37;;;17.20;53.90;;;;;;5044703;28;20616;-46
2023/04/06 12:06:46;;;;;;;2.70;2.10;;;17.20;54.00;;;;;;5046786;28;20206;-46
2023/04/06 12:09:21;;;;;;;3.07;2.70;;;17.20;54.00;;;;;;5036707;28;20183;-46
2023/04/06 12:11:49;;;;;;;3.10;2.80;;;17.20;53.70;;;;;;5029778;28;20217;-46
2023/04/06 12:14:18;;;;;;;3.33;2.57;;;17.20;53.80;;;;;;5047704;28;20213;-46
2023/04/06 12:16:46;;;;;;;3.53;2.60;;;17.20;53.70;;;;;;5046626;28;20210;-47
2023/04/06 12:19:15;;;;;;;4.03;2.67;;;17.20;53.90;;;;;;5051715;28;20194;-46
2023/04/06 12:21:44;;;;;;;2.97;2.57;;;17.20;53.90;;;;;;5049697;28;20205;-46
2023/04/06 12:24:16;;;;;;;2.63;2.37;;;17.20;53.90;;;;;;5051098;28;20190;-46
2023/04/06 12:26:47;;;;;;;3.10;2.37;;;17.20;53.80;;;;;;5046688;28;20207;-46
2023/04/06 12:29:27;;;;;;;3.50;2.73;;;17.20;53.70;;;;;;5051441;28;20206;-46
2023/04/06 12:31:56;;;;;;;3.27;2.50;;;17.20;53.50;;;;;;5049819;28;20628;-46
2023/04/06 12:34:27;;;;;;;3.27;2.40;;;17.20;53.70;;;;;;5049046;28;20198;-46
2023/04/06 12:36:58;;;;;;;3.40;2.77;;;17.20;53.70;;;;;;5053174;28;20537;-46
2023/04/06 12:39:27;;;;;;;3.07;2.60;;;17.20;53.70;;;;;;5046604;28;20233;-46
2023/04/06 12:41:57;;;;;;;2.40;2.13;;;17.20;53.60;;;;;;5051656;28;20201;-46
2023/04/06 12:44:30;;;;;;;2.80;2.50;;;17.20;53.70;;;;;;5049496;28;20218;-46
2023/04/06 12:47:02;;;;;;;4.03;3.10;;;17.20;53.70;;;;;;5044700;28;20211;-46
2023/04/06 12:49:32;;;;;;;3.13;2.57;;;17.20;53.70;;;;;;5053734;28;20198;-46
2023/04/06 12:52:03;;;;;;;4.40;3.07;;;17.20;53.70;;;;;;5050109;28;20245;-46
2023/04/06 12:54:33;;;;;;;4.10;3.03;;;17.30;53.70;;;;;;5025635;28;20488;-46
2023/04/06 12:57:04;;;;;;;2.20;2.00;;;17.30;53.70;;;;;;5035931;28;20194;-46
2023/04/06 12:59:34;;;;;;;3.80;2.70;;;17.20;53.70;;;;;;5047473;28;20547;-46
2023/04/06 13:02:04;;;;;;;3.43;2.80;;;17.30;53.70;;;;;;5050214;28;20830;-47
2023/04/06 13:04:37;;;;;;;3.93;2.50;;;17.30;53.70;;;;;;5042065;28;20222;-46
2023/04/06 13:07:08;;;;;;;3.37;2.80;;;17.30;53.70;;;;;;5050925;28;20202;-46
2023/04/06 13:09:40;;;;;;;3.20;2.77;;;17.30;53.70;;;;;;5051181;28;20203;-46
2023/04/06 13:12:12;;;;;;;4.33;2.80;;;17.20;53.70;;;;;;5050431;28;20222;-46